»·PEaware :: SKY96 KCLM-KFHR

SKY96 :: KCLM-KFHR

FLIGHT INFORMATION

Flight Status: Arrived
Operator:
Sky High Charters
More flights by this operator :: More flights under this callsign
Pilot: Russell S. (24346)
Aircraft: BEECH AIRCRAFT DEBONAIR BONANZA
(BE33)
More flights by this aircraft type
Origin: KCLM Fairchild Intl
United States
Destination: KFHR Friday Harbor
United States
More flights between these airports :: More routes between these airports
Route: WATR7 WATTR
File this flight plan on PilotEdge
Remarks: Sky high scenario 3
Altitude:
(Current/Filed)
7,000ft
Speed:
(Current/Filed)
160kts
Departed: 12-Aug-19 02:49 PM
Arrived: 12-Aug-19 03:23 PM
Distance/Time
Traveled:
31nm/0:33
Distance/Time
To Go:
Arrived

Flight Plot

Page will automatically refresh every two minutes.


Map Options




Map Legend


Flown Route
Filed Route
Departure Airport
Arrival Airport
Navaid (VOR, NDB)
Fix

Horizontal Profiles

Position Reports

Time Latitude Longitude Heading Altitude Ground
Speed
12-Aug-19 14:39 48.116078 -123.491692 16 287ft 0kts
12-Aug-19 14:40 48.116078 -123.491692 16 287ft 0kts
12-Aug-19 14:41 48.116078 -123.491692 16 287ft 0kts
12-Aug-19 14:42 48.116039 -123.490705 89 289ft 6kts
12-Aug-19 14:43 48.116458 -123.489856 90 290ft 0kts
12-Aug-19 14:44 48.116184 -123.488149 104 297ft 11kts
12-Aug-19 14:45 48.115973 -123.486757 28 300ft 0kts
12-Aug-19 14:46 48.115973 -123.486757 28 300ft 0kts
12-Aug-19 14:47 48.116727 -123.486809 283 298ft 0kts
12-Aug-19 14:48 48.121566 -123.506712 305 626ft 97kts
12-Aug-19 14:49 48.136910 -123.541993 349 1697ft 113kts
12-Aug-19 14:50 48.149537 -123.506008 88 2794ft 115kts
12-Aug-19 14:51 48.149217 -123.458655 90 3885ft 110kts
12-Aug-19 14:52 48.148732 -123.415209 89 4895ft 103kts
12-Aug-19 14:53 48.148505 -123.370739 89 5703ft 110kts
12-Aug-19 14:54 48.148350 -123.324473 89 6504ft 111kts
12-Aug-19 14:55 48.148329 -123.276524 89 7010ft 133kts
12-Aug-19 14:56 48.148375 -123.213054 89 7003ft 164kts
12-Aug-19 14:57 48.148401 -123.143246 89 6997ft 169kts
12-Aug-19 14:58 48.148441 -123.072412 89 7000ft 171kts
12-Aug-19 14:59 48.148540 -122.999111 89 6673ft 181kts
12-Aug-19 15:00 48.163784 -122.938637 358 6152ft 166kts
12-Aug-19 15:01 48.208127 -122.951885 345 5586ft 163kts
12-Aug-19 15:02 48.252823 -122.966327 345 4891ft 166kts
12-Aug-19 15:03 48.298626 -122.978139 348 4190ft 168kts
12-Aug-19 15:04 48.345132 -122.988738 349 3487ft 167kts
12-Aug-19 15:05 48.389576 -122.999338 350 3003ft 151kts
12-Aug-19 15:06 48.428168 -123.007947 351 3001ft 132kts
12-Aug-19 15:08 48.463697 -123.015985 351 3000ft 127kts
12-Aug-19 15:09 48.498302 -123.023079 354 2999ft 124kts
12-Aug-19 15:10 48.532658 -123.026239 1 2997ft 123kts
12-Aug-19 15:11 48.552553 -123.003091 124 2995ft 111kts
12-Aug-19 15:12 48.526411 -123.015097 218 2998ft 116kts
12-Aug-19 15:13 48.495674 -123.021164 177 2858ft 123kts
12-Aug-19 15:14 48.458746 -123.021018 178 2384ft 139kts
12-Aug-19 15:15 48.422074 -123.018667 176 2300ft 124kts
12-Aug-19 15:16 48.399029 -122.985647 124 2305ft 118kts
12-Aug-19 15:17 48.373976 -122.978594 250 2310ft 123kts
12-Aug-19 15:18 48.391341 -123.016295 351 2309ft 118kts
12-Aug-19 15:19 48.427634 -123.024527 354 1889ft 143kts
12-Aug-19 15:20 48.463461 -123.027018 0 1133ft 116kts
12-Aug-19 15:21 48.493267 -123.026109 11 835ft 91kts
12-Aug-19 15:22 48.516985 -123.024054 0 105ft 71kts
12-Aug-19 15:23 48.523619 -123.024962 316 106ft 7kts
12-Aug-19 15:24 48.523799 -123.025084 348 107ft 5kts
12-Aug-19 15:25 48.524914 -123.025747 332 113ft 11kts
12-Aug-19 15:25 48.525135 -123.025903 336 114ft 0kts
12-Aug-19 15:27 48.525135 -123.025903 336 114ft 0kts
12-Aug-19 15:28 48.525135 -123.025903 336 114ft 0kts
12-Aug-19 15:28 48.525135 -123.025903 336 114ft 0kts
12-Aug-19 15:30 48.525135 -123.025903 336 114ft 0kts
12-Aug-19 15:31 48.525135 -123.025903 336 114ft 0kts
12-Aug-19 15:31 48.525135 -123.025903 336 114ft 0kts
12-Aug-19 15:33 48.525135 -123.025903 336 114ft 0kts
12-Aug-19 15:33 48.525135 -123.025903 336 114ft 0kts
12-Aug-19 15:34 48.525135 -123.025903 336 114ft 0kts

Navigation Log

Ident Type
Flight plan parsing failed, navigation log unavailable